Time;durP1;ratioP1;P1;durP2;ratioP2;P2;SDS_P1;SDS_P2;PMS_P1;PMS_P2;Temp;Humidity;BMP_temperature;BMP_pressure;BME280_temperature;BME280_humidity;BME280_pressure;Samples;Min_cycle;Max_cycle;Signal;HPM_P1;HPM_P2
2021/04/29 00:00:22;;;;;;;17.90;10.30;;;9.20;70.90;;;;;;5032083;28;20041;-42
2021/04/29 00:02:48;;;;;;;25.48;11.77;;;9.20;71.30;;;;;;5033008;28;20029;-42
2021/04/29 00:05:16;;;;;;;19.75;11.10;;;9.30;71.10;;;;;;5032757;28;20100;-41
2021/04/29 00:07:42;;;;;;;20.77;12.07;;;9.30;71.60;;;;;;5032778;28;20036;-41
2021/04/29 00:10:10;;;;;;;20.70;10.35;;;9.30;71.10;;;;;;5032891;28;20027;-45
2021/04/29 00:12:35;;;;;;;23.48;11.30;;;9.20;70.90;;;;;;5032783;28;20392;-41
2021/04/29 00:15:01;;;;;;;17.65;9.68;;;9.20;70.80;;;;;;5032507;28;20100;-43
2021/04/29 00:17:26;;;;;;;24.77;11.95;;;9.20;70.80;;;;;;5031847;28;20113;-41
2021/04/29 00:19:52;;;;;;;17.33;10.93;;;9.20;71.20;;;;;;5032421;28;20037;-45
2021/04/29 00:22:17;;;;;;;19.85;10.55;;;9.20;71.10;;;;;;5031625;28;20021;-41
2021/04/29 00:24:43;;;;;;;20.67;10.95;;;9.20;70.90;;;;;;5032591;28;20026;-44
2021/04/29 00:27:08;;;;;;;15.82;9.02;;;9.20;70.90;;;;;;5032431;28;20386;-44
2021/04/29 00:29:34;;;;;;;21.10;11.80;;;9.20;70.80;;;;;;5032444;28;20037;-45
2021/04/29 00:31:59;;;;;;;21.58;11.48;;;9.20;71.50;;;;;;5031450;28;20108;-41
2021/04/29 00:34:25;;;;;;;17.67;10.52;;;9.20;71.00;;;;;;5032366;28;20538;-42
2021/04/29 00:36:51;;;;;;;19.58;11.43;;;9.20;70.90;;;;;;5031309;28;20026;-41
2021/04/29 00:39:16;;;;;;;16.90;10.30;;;9.20;71.10;;;;;;5031459;28;20029;-44
2021/04/29 00:41:42;;;;;;;16.60;9.98;;;9.20;70.90;;;;;;5032336;28;20104;-44
2021/04/29 00:44:07;;;;;;;15.82;10.40;;;9.20;71.10;;;;;;5032287;28;20029;-44
2021/04/29 00:46:35;;;;;;;15.20;8.95;;;9.20;71.20;;;;;;5031632;28;20485;-41
2021/04/29 00:49:01;;;;;;;19.67;9.75;;;9.20;71.10;;;;;;5032059;28;20026;-41
2021/04/29 00:51:26;;;;;;;16.02;9.65;;;9.10;71.00;;;;;;5032360;28;20457;-43
2021/04/29 00:53:53;;;;;;;17.15;9.95;;;9.10;71.20;;;;;;5032262;28;20405;-41
2021/04/29 00:56:20;;;;;;;16.95;9.57;;;9.10;71.40;;;;;;5032253;28;20033;-44
2021/04/29 00:58:48;;;;;;;18.08;9.52;;;9.10;71.30;;;;;;5032010;28;20681;-42
2021/04/29 01:01:14;;;;;;;17.00;9.77;;;9.10;71.30;;;;;;5031257;28;20081;-41
2021/04/29 01:04:10;;;;;;;23.35;10.95;;;9.10;71.60;;;;;;5032062;28;20033;-45
2021/04/29 01:06:40;;;;;;;20.75;11.68;;;9.10;71.80;;;;;;5017567;28;20473;-42
2021/04/29 01:09:41;;;;;;;16.55;10.02;;;9.10;71.80;;;;;;5031991;28;20064;-44
2021/04/29 01:12:12;;;;;;;20.30;10.55;;;9.10;71.80;;;;;;5032143;28;20385;-43
2021/04/29 01:14:40;;;;;;;14.75;9.48;;;9.10;71.60;;;;;;5032139;28;20100;-43
2021/04/29 01:17:07;;;;;;;16.15;9.07;;;9.00;71.60;;;;;;5030996;28;20063;-41
2021/04/29 01:19:45;;;;;;;19.55;9.48;;;9.00;71.90;;;;;;5031832;28;20025;-41
2021/04/29 01:22:13;;;;;;;17.30;9.63;;;9.00;72.20;;;;;;5032109;28;20398;-41
2021/04/29 01:25:02;;;;;;;14.32;9.48;;;9.00;72.00;;;;;;5032125;28;20068;-43
2021/04/29 01:27:28;;;;;;;17.50;10.63;;;9.00;72.20;;;;;;5032023;28;20025;-42
2021/04/29 01:29:54;;;;;;;14.13;8.95;;;9.00;72.00;;;;;;5031847;28;20030;-43
2021/04/29 01:32:21;;;;;;;18.63;10.18;;;9.00;71.90;;;;;;5031072;28;20026;-44
2021/04/29 01:34:47;;;;;;;16.65;9.43;;;9.00;72.20;;;;;;5031901;28;20093;-42
2021/04/29 01:37:13;;;;;;;13.15;8.10;;;9.00;71.90;;;;;;5030662;28;20500;-44
2021/04/29 01:39:39;;;;;;;15.65;9.13;;;9.00;72.40;;;;;;5031765;28;20121;-43
2021/04/29 01:42:05;;;;;;;16.75;8.25;;;9.00;72.50;;;;;;5031808;28;20112;-43
2021/04/29 01:44:31;;;;;;;13.82;9.05;;;9.00;72.50;;;;;;5031936;28;20018;-44
2021/04/29 01:46:59;;;;;;;15.77;10.38;;;9.00;72.70;;;;;;5031077;28;20374;-41
2021/04/29 01:49:25;;;;;;;20.83;10.70;;;9.00;72.70;;;;;;5031757;28;20057;-41
2021/04/29 01:51:51;;;;;;;17.98;9.93;;;9.00;72.90;;;;;;5034872;28;20512;-43
2021/04/29 01:54:18;;;;;;;25.30;13.07;;;9.00;73.10;;;;;;5033905;28;20132;-43
2021/04/29 01:56:44;;;;;;;24.48;12.73;;;8.90;73.30;;;;;;5035315;28;20040;-43
2021/04/29 01:59:10;;;;;;;29.77;12.20;;;8.90;73.40;;;;;;5034832;28;20591;-41
2021/04/29 02:01:38;;;;;;;22.10;12.02;;;8.90;73.60;;;;;;5034484;28;20025;-45
2021/04/29 02:04:05;;;;;;;20.13;11.30;;;8.90;73.80;;;;;;5035147;28;20381;-44
2021/04/29 02:06:30;;;;;;;23.38;12.80;;;8.90;73.60;;;;;;5031712;28;20091;-41
2021/04/29 02:08:56;;;;;;;18.30;10.45;;;8.90;74.40;;;;;;5033594;28;20517;-44
2021/04/29 02:11:23;;;;;;;18.83;11.05;;;8.90;73.90;;;;;;5034694;28;20036;-46
2021/04/29 02:13:52;;;;;;;19.35;11.35;;;8.80;74.30;;;;;;5039894;28;20021;-42
2021/04/29 02:16:24;;;;;;;24.30;12.32;;;8.80;74.00;;;;;;5052354;28;20021;-43
2021/04/29 02:18:51;;;;;;;20.10;11.23;;;8.80;74.20;;;;;;5054469;28;20492;-45
2021/04/29 02:21:18;;;;;;;18.33;11.05;;;8.80;74.10;;;;;;5054358;28;20494;-44
2021/04/29 02:23:46;;;;;;;23.50;12.07;;;8.80;74.40;;;;;;5054561;28;20032;-43
2021/04/29 02:26:13;;;;;;;19.48;12.63;;;8.80;74.80;;;;;;5054246;28;20024;-46
2021/04/29 02:28:39;;;;;;;25.63;11.52;;;8.80;74.70;;;;;;5054672;28;20036;-42
2021/04/29 02:31:05;;;;;;;18.70;10.63;;;8.80;74.90;;;;;;5053669;28;20048;-44
2021/04/29 02:33:32;;;;;;;20.13;11.25;;;8.80;74.60;;;;;;5054544;28;20452;-44
2021/04/29 02:35:58;;;;;;;18.90;9.88;;;8.80;74.60;;;;;;5054630;28;20387;-42
2021/04/29 02:38:23;;;;;;;15.73;10.00;;;8.80;74.60;;;;;;5054291;28;20108;-44
2021/04/29 02:40:49;;;;;;;21.35;11.63;;;8.80;74.60;;;;;;5054201;28;20123;-42
2021/04/29 02:43:17;;;;;;;25.52;12.73;;;8.80;74.90;;;;;;5054269;28;20415;-42
2021/04/29 02:45:43;;;;;;;19.35;11.77;;;8.80;74.80;;;;;;5053111;28;20021;-41
2021/04/29 02:48:10;;;;;;;18.70;11.30;;;8.90;75.30;;;;;;5054212;28;20025;-44
2021/04/29 02:50:36;;;;;;;20.75;11.63;;;8.90;75.10;;;;;;5052402;28;20025;-43
2021/04/29 02:53:01;;;;;;;18.35;11.13;;;8.80;75.10;;;;;;5034049;28;20358;-43
2021/04/29 02:55:28;;;;;;;17.75;10.20;;;8.80;75.00;;;;;;5034113;28;20025;-41
2021/04/29 02:58:02;;;;;;;24.10;12.25;;;8.80;75.20;;;;;;5034042;28;20072;-43
2021/04/29 03:00:29;;;;;;;22.98;11.43;;;8.80;75.30;;;;;;5033065;28;20072;-41
2021/04/29 03:02:55;;;;;;;22.27;11.05;;;8.90;75.40;;;;;;5033363;28;20492;-42
2021/04/29 03:05:20;;;;;;;19.25;10.52;;;8.90;75.40;;;;;;5033929;28;20021;-42
2021/04/29 03:07:46;;;;;;;19.23;10.00;;;8.80;75.70;;;;;;5033790;28;20028;-43
2021/04/29 03:10:12;;;;;;;20.63;11.45;;;8.80;75.50;;;;;;5033709;28;20029;-46
2021/04/29 03:12:39;;;;;;;19.05;11.73;;;8.80;75.60;;;;;;5033945;28;20472;-43
2021/04/29 03:15:06;;;;;;;19.05;11.43;;;8.80;75.60;;;;;;5049017;28;20500;-43
2021/04/29 03:17:32;;;;;;;19.95;11.32;;;8.80;75.50;;;;;;5053452;28;20124;-43
2021/04/29 03:19:57;;;;;;;18.48;11.25;;;8.90;75.90;;;;;;5053474;28;20100;-41
2021/04/29 03:22:23;;;;;;;19.00;10.40;;;8.90;75.80;;;;;;5053250;28;20464;-42
2021/04/29 03:24:49;;;;;;;16.83;10.40;;;8.80;75.90;;;;;;5053562;28;20041;-41
2021/04/29 03:27:18;;;;;;;18.17;11.23;;;8.80;75.70;;;;;;5053550;28;20468;-42
2021/04/29 03:29:44;;;;;;;20.05;11.50;;;8.80;76.20;;;;;;5053374;28;20029;-42
2021/04/29 03:32:09;;;;;;;18.83;10.90;;;8.80;77.00;;;;;;5052418;28;20036;-43
2021/04/29 03:34:35;;;;;;;18.65;10.13;;;8.80;76.20;;;;;;5053285;28;20448;-43
2021/04/29 03:37:01;;;;;;;18.02;9.90;;;8.80;76.50;;;;;;5053106;28;20165;-43
2021/04/29 03:39:26;;;;;;;14.63;9.48;;;8.80;76.40;;;;;;5053034;28;20039;-42
2021/04/29 03:41:52;;;;;;;22.10;9.95;;;8.80;77.20;;;;;;5053299;28;20070;-41
2021/04/29 03:44:18;;;;;;;19.90;9.63;;;8.80;77.10;;;;;;5053174;28;20357;-44
2021/04/29 03:46:43;;;;;;;23.42;11.07;;;8.80;76.80;;;;;;5052216;28;20044;-41
2021/04/29 03:49:09;;;;;;;15.93;9.13;;;8.80;76.70;;;;;;5053175;28;20120;-43
2021/04/29 03:51:34;;;;;;;19.10;9.70;;;8.80;76.50;;;;;;5042906;28;20084;-41
2021/04/29 03:54:00;;;;;;;15.52;9.45;;;8.80;76.80;;;;;;5033053;28;20380;-43
2021/04/29 03:56:25;;;;;;;14.30;8.20;;;8.90;76.70;;;;;;5032853;28;20021;-43
2021/04/29 03:58:51;;;;;;;17.05;9.70;;;8.90;76.90;;;;;;5032831;28;20049;-43
2021/04/29 04:01:16;;;;;;;18.58;10.35;;;8.90;76.60;;;;;;5042285;28;20411;-43
2021/04/29 04:03:42;;;;;;;20.23;10.43;;;8.90;76.80;;;;;;5048743;28;20103;-43
2021/04/29 04:06:08;;;;;;;17.85;10.43;;;9.00;76.80;;;;;;5032786;28;20024;-43
2021/04/29 04:08:33;;;;;;;20.55;11.18;;;9.00;77.30;;;;;;5050055;28;20104;-42
2021/04/29 04:10:59;;;;;;;17.70;9.45;;;9.00;77.90;;;;;;5020600;28;20131;-41
2021/04/29 04:13:25;;;;;;;16.23;8.95;;;9.00;77.60;;;;;;5049979;28;20025;-41
2021/04/29 04:15:50;;;;;;;12.40;7.82;;;9.00;77.70;;;;;;5050196;28;20025;-41
2021/04/29 04:18:16;;;;;;;19.80;9.40;;;9.00;78.20;;;;;;5032564;28;20022;-43
2021/04/29 04:20:42;;;;;;;17.67;9.25;;;9.00;77.80;;;;;;5033796;28;20029;-41
2021/04/29 04:23:08;;;;;;;15.82;8.45;;;9.00;77.70;;;;;;5051062;28;20025;-41
2021/04/29 04:25:34;;;;;;;15.95;9.90;;;9.10;78.00;;;;;;5051834;28;20033;-43
2021/04/29 04:28:00;;;;;;;18.17;9.07;;;9.10;77.90;;;;;;5032389;28;20026;-43
2021/04/29 04:30:26;;;;;;;15.18;9.38;;;9.10;78.00;;;;;;5031504;28;20942;-42
2021/04/29 04:32:52;;;;;;;16.00;8.93;;;9.10;78.70;;;;;;5050600;28;20058;-45
2021/04/29 04:35:18;;;;;;;19.02;9.90;;;9.10;79.50;;;;;;5052120;28;20096;-43
2021/04/29 04:37:44;;;;;;;15.00;9.73;;;9.10;79.70;;;;;;5034434;28;20445;-43
2021/04/29 04:40:10;;;;;;;15.13;9.63;;;9.10;80.60;;;;;;5032272;28;20112;-43
2021/04/29 04:42:36;;;;;;;18.65;12.15;;;9.00;81.10;;;;;;5048260;28;20066;-42
2021/04/29 04:45:01;;;;;;;23.55;12.10;;;9.00;82.20;;;;;;5052102;28;20362;-44
2021/04/29 04:47:27;;;;;;;19.83;11.60;;;8.90;84.50;;;;;;5037132;28;20120;-43
2021/04/29 04:49:52;;;;;;;19.73;12.50;;;8.80;83.40;;;;;;5046644;28;20036;-42
2021/04/29 04:52:18;;;;;;;19.80;12.88;;;8.80;84.60;;;;;;5048599;28;20108;-44
2021/04/29 04:54:44;;;;;;;21.23;12.23;;;8.70;86.10;;;;;;5050834;28;20365;-44
2021/04/29 04:57:10;;;;;;;18.60;12.45;;;8.70;87.00;;;;;;5041166;28;20151;-41
2021/04/29 04:59:36;;;;;;;24.05;13.95;;;8.70;87.90;;;;;;5043607;28;20061;-42
2021/04/29 05:02:03;;;;;;;22.05;13.57;;;8.70;88.00;;;;;;5041629;28;20025;-46
2021/04/29 05:04:29;;;;;;;21.02;12.82;;;8.70;87.80;;;;;;5031771;28;20223;-42
2021/04/29 05:06:55;;;;;;;20.42;12.73;;;8.70;90.00;;;;;;5039607;28;20104;-43
2021/04/29 05:09:21;;;;;;;17.58;11.30;;;8.70;88.80;;;;;;5044272;28;20365;-46
2021/04/29 05:11:47;;;;;;;20.60;13.20;;;8.70;89.70;;;;;;5037581;28;20034;-42
2021/04/29 05:14:12;;;;;;;19.70;12.65;;;8.70;90.10;;;;;;5039839;28;20037;-42
2021/04/29 05:16:39;;;;;;;16.58;11.70;;;8.70;89.80;;;;;;5030979;28;20542;-41
2021/04/29 05:19:05;;;;;;;20.67;12.05;;;8.80;90.20;;;;;;5038488;28;20029;-44
2021/04/29 05:21:31;;;;;;;20.42;13.25;;;8.80;90.10;;;;;;5051593;28;20116;-41
2021/04/29 05:23:56;;;;;;;28.83;13.05;;;8.80;91.00;;;;;;5046328;28;20080;-43
2021/04/29 05:26:22;;;;;;;21.52;14.23;;;8.80;90.40;;;;;;5034443;28;20529;-44
2021/04/29 05:28:47;;;;;;;21.58;13.70;;;8.80;90.60;;;;;;5046565;28;20033;-46
2021/04/29 05:31:12;;;;;;;22.65;12.65;;;8.80;90.20;;;;;;5034773;28;20061;-42
2021/04/29 05:33:38;;;;;;;22.08;12.07;;;8.80;90.70;;;;;;5035907;28;20496;-45
2021/04/29 05:36:04;;;;;;;19.70;11.00;;;8.80;90.50;;;;;;5047212;28;20026;-41
2021/04/29 05:38:29;;;;;;;20.48;11.82;;;8.80;90.60;;;;;;5055504;28;20025;-41
2021/04/29 05:40:55;;;;;;;19.90;12.48;;;8.80;90.90;;;;;;5055260;28;20033;-44
2021/04/29 05:43:20;;;;;;;21.13;13.40;;;8.90;92.20;;;;;;5055480;28;20105;-43
2021/04/29 05:45:46;;;;;;;19.20;13.00;;;8.90;92.90;;;;;;5054422;28;20021;-42
2021/04/29 05:48:11;;;;;;;21.15;12.68;;;8.90;93.70;;;;;;5055218;28;20483;-45
2021/04/29 05:50:37;;;;;;;20.70;13.18;;;8.90;94.60;;;;;;5053062;28;20535;-41
2021/04/29 05:53:02;;;;;;;20.27;12.98;;;8.90;96.70;;;;;;5035246;28;20038;-43
2021/04/29 05:55:28;;;;;;;24.00;12.82;;;8.90;98.20;;;;;;5035103;28;20353;-41
2021/04/29 05:57:57;;;;;;;21.85;11.88;;;8.80;97.60;;;;;;5035192;28;20397;-44
2021/04/29 06:00:23;;;;;;;21.98;12.60;;;8.80;97.90;;;;;;5034218;28;20400;-41
2021/04/29 06:02:49;;;;;;;17.65;10.85;;;8.80;97.90;;;;;;5034975;28;20044;-41
2021/04/29 06:05:14;;;;;;;20.17;11.48;;;8.90;97.50;;;;;;5048451;28;20472;-43
2021/04/29 06:07:40;;;;;;;20.83;12.43;;;8.90;97.50;;;;;;5054440;28;20021;-42
2021/04/29 06:10:06;;;;;;;23.88;13.65;;;9.00;98.60;;;;;;5053630;28;20024;-40
2021/04/29 06:12:31;;;;;;;20.00;13.52;;;9.00;98.10;;;;;;5054432;28;20044;-46
2021/04/29 06:14:57;;;;;;;23.17;12.35;;;9.00;98.50;;;;;;5054707;28;20024;-40
2021/04/29 06:17:23;;;;;;;21.75;13.65;;;9.10;99.30;;;;;;5053708;28;20547;-44
2021/04/29 06:19:48;;;;;;;22.58;12.88;;;9.20;99.90;;;;;;5054489;28;20041;-42
2021/04/29 06:22:14;;;;;;;23.58;14.43;;;9.20;99.90;;;;;;5054611;28;20056;-47
2021/04/29 06:24:39;;;;;;;17.20;11.32;;;9.30;99.90;;;;;;5054382;28;20033;-43
2021/04/29 06:27:05;;;;;;;16.85;12.20;;;9.30;99.90;;;;;;5054352;28;20100;-43
2021/04/29 06:29:30;;;;;;;17.92;11.27;;;9.40;99.90;;;;;;5054309;28;20029;-43
2021/04/29 06:31:57;;;;;;;23.23;13.05;;;9.50;99.90;;;;;;5053447;28;20449;-43
2021/04/29 06:34:22;;;;;;;17.33;12.38;;;9.50;99.90;;;;;;5054264;28;20021;-44
2021/04/29 06:36:48;;;;;;;19.38;12.18;;;9.50;99.90;;;;;;5052657;28;20443;-43
2021/04/29 06:39:14;;;;;;;18.30;11.75;;;9.60;99.90;;;;;;5054262;28;20061;-45
2021/04/29 06:41:40;;;;;;;18.67;12.65;;;9.70;99.90;;;;;;5053768;28;20056;-46
2021/04/29 06:44:06;;;;;;;22.17;13.35;;;9.80;99.90;;;;;;5053175;28;20064;-42
2021/04/29 06:46:31;;;;;;;25.88;15.00;;;9.90;99.90;;;;;;5034221;28;20021;-43
2021/04/29 06:48:57;;;;;;;22.88;13.25;;;9.90;99.90;;;;;;5034001;28;20416;-43
2021/04/29 06:51:22;;;;;;;24.13;14.05;;;9.90;99.90;;;;;;5034372;28;20036;-44
2021/04/29 06:53:48;;;;;;;19.65;12.50;;;9.90;99.90;;;;;;5053853;28;20163;-42
2021/04/29 06:56:13;;;;;;;21.85;13.07;;;9.90;99.90;;;;;;5051599;28;20029;-44
2021/04/29 06:58:39;;;;;;;29.75;14.63;;;9.90;99.90;;;;;;5035000;28;20045;-47
2021/04/29 07:01:04;;;;;;;22.75;13.65;;;10.00;99.90;;;;;;5019880;28;20120;-51
2021/04/29 07:03:30;;;;;;;21.50;13.93;;;10.00;99.90;;;;;;5025535;28;20200;-46
2021/04/29 07:05:55;;;;;;;18.02;12.32;;;9.90;99.90;;;;;;5022213;28;20469;-47
2021/04/29 07:08:21;;;;;;;19.70;13.50;;;9.90;99.90;;;;;;5013809;28;20545;-47
2021/04/29 07:10:48;;;;;;;28.55;17.40;;;9.80;99.90;;;;;;5017510;28;20029;-45
2021/04/29 07:13:14;;;;;;;21.17;13.63;;;9.80;99.90;;;;;;5024829;28;20384;-44
2021/04/29 07:15:40;;;;;;;19.73;13.38;;;9.80;99.90;;;;;;5040371;28;20029;-46
2021/04/29 07:18:05;;;;;;;19.88;12.73;;;9.80;99.90;;;;;;5021668;28;20030;-45
2021/04/29 07:20:34;;;;;;;18.60;11.52;;;9.70;99.90;;;;;;5013643;28;20109;-49
2021/04/29 07:23:00;;;;;;;20.80;13.23;;;9.60;99.90;;;;;;5013586;28;20072;-45
2021/04/29 07:25:25;;;;;;;22.63;15.18;;;9.60;99.90;;;;;;5013782;28;20062;-45
2021/04/29 07:27:52;;;;;;;24.25;14.30;;;9.60;99.90;;;;;;5013200;28;20034;-44
2021/04/29 07:30:18;;;;;;;17.98;13.73;;;9.70;99.90;;;;;;5030270;28;20036;-46
2021/04/29 07:32:44;;;;;;;16.95;12.10;;;9.80;99.90;;;;;;5032756;28;20025;-44
2021/04/29 07:35:10;;;;;;;21.92;14.68;;;9.80;99.90;;;;;;5033316;28;20068;-44
2021/04/29 07:37:35;;;;;;;17.83;11.10;;;9.80;99.90;;;;;;5033104;28;20033;-44
2021/04/29 07:40:01;;;;;;;16.98;11.57;;;9.80;99.90;;;;;;5033052;28;20473;-49
2021/04/29 07:42:26;;;;;;;18.67;10.65;;;9.80;99.90;;;;;;5032856;28;20026;-45
2021/04/29 07:44:52;;;;;;;15.75;10.85;;;9.90;99.90;;;;;;5033228;28;20477;-49
2021/04/29 07:47:17;;;;;;;21.05;11.15;;;9.90;99.90;;;;;;5031509;28;20026;-45
2021/04/29 07:49:43;;;;;;;20.35;10.55;;;9.80;99.90;;;;;;5032216;28;20048;-46
2021/04/29 07:52:09;;;;;;;15.48;10.98;;;9.90;99.90;;;;;;5032707;28;20025;-47
2021/04/29 07:54:35;;;;;;;15.60;10.30;;;9.90;99.90;;;;;;5021769;28;20029;-44
2021/04/29 07:57:01;;;;;;;18.15;11.98;;;9.80;99.90;;;;;;5012990;28;20116;-46
2021/04/29 07:59:29;;;;;;;17.15;11.38;;;9.90;99.90;;;;;;5012694;28;20561;-46
2021/04/29 08:01:55;;;;;;;17.30;11.27;;;9.90;99.90;;;;;;5011506;28;20130;-45
2021/04/29 08:04:21;;;;;;;18.42;10.93;;;9.90;99.90;;;;;;5011651;28;20022;-47
2021/04/29 08:06:46;;;;;;;15.25;11.07;;;9.90;99.90;;;;;;5013014;28;20045;-45
2021/04/29 08:09:12;;;;;;;15.18;8.90;;;9.80;99.90;;;;;;5012865;28;20105;-50
2021/04/29 08:11:37;;;;;;;13.82;10.00;;;9.90;99.90;;;;;;5012852;28;20029;-47
2021/04/29 08:14:03;;;;;;;18.27;12.07;;;9.90;99.90;;;;;;5026474;28;20045;-48
2021/04/29 08:16:28;;;;;;;19.60;13.02;;;9.90;99.90;;;;;;5050135;28;20025;-43
2021/04/29 08:18:54;;;;;;;23.20;13.65;;;9.90;99.90;;;;;;5052063;28;20053;-44
2021/04/29 08:21:19;;;;;;;18.85;12.55;;;9.90;99.90;;;;;;5052421;28;20468;-46
2021/04/29 08:23:45;;;;;;;17.63;11.95;;;9.90;99.90;;;;;;5050736;28;20547;-44
2021/04/29 08:26:10;;;;;;;22.45;17.38;;;9.90;99.90;;;;;;5052365;28;20096;-45
2021/04/29 08:28:36;;;;;;;18.63;14.35;;;9.90;99.90;;;;;;5051925;28;20150;-44
2021/04/29 08:31:02;;;;;;;15.82;10.73;;;9.80;99.90;;;;;;5051040;28;20021;-46
2021/04/29 08:33:27;;;;;;;13.82;11.20;;;9.80;99.90;;;;;;5052113;28;20021;-49
2021/04/29 08:35:53;;;;;;;14.85;10.05;;;9.80;99.90;;;;;;5051985;28;20025;-45
2021/04/29 08:38:19;;;;;;;20.35;14.98;;;9.80;99.90;;;;;;5051998;28;20067;-45
2021/04/29 08:40:44;;;;;;;18.25;11.15;;;9.90;99.90;;;;;;5051975;28;20025;-43
2021/04/29 08:43:10;;;;;;;14.85;10.45;;;9.90;99.90;;;;;;5040954;28;20027;-47
2021/04/29 08:45:36;;;;;;;16.33;10.60;;;10.00;99.90;;;;;;5011239;28;20108;-42
2021/04/29 08:48:02;;;;;;;17.85;11.32;;;10.10;99.90;;;;;;5012071;28;20115;-45
2021/04/29 08:50:28;;;;;;;16.70;10.90;;;10.10;99.90;;;;;;5013009;28;20030;-46
2021/04/29 08:52:54;;;;;;;17.23;12.43;;;10.10;99.90;;;;;;5021372;28;20034;-45
2021/04/29 08:55:22;;;;;;;17.02;10.80;;;10.10;99.90;;;;;;5023382;28;20022;-44
2021/04/29 08:57:48;;;;;;;14.48;10.57;;;10.10;99.90;;;;;;5032846;28;20045;-42
2021/04/29 09:00:16;;;;;;;14.50;10.52;;;10.00;99.90;;;;;;5031613;28;20057;-44
2021/04/29 09:02:42;;;;;;;18.65;12.20;;;10.00;99.90;;;;;;5035917;28;20505;-44
2021/04/29 09:05:19;;;;;;;19.83;14.10;;;10.00;99.90;;;;;;5036130;28;20029;-44
2021/04/29 09:08:01;;;;;;;22.25;16.20;;;10.00;99.90;;;;;;5039394;28;20059;-46
2021/04/29 09:10:33;;;;;;;18.95;14.68;;;10.10;99.90;;;;;;5016300;28;20022;-46
2021/04/29 09:13:11;;;;;;;21.02;13.80;;;10.10;99.90;;;;;;5036139;28;20025;-44
2021/04/29 09:15:39;;;;;;;23.50;16.33;;;10.10;99.90;;;;;;5015236;28;20034;-44
2021/04/29 09:18:21;;;;;;;17.60;13.27;;;10.10;99.90;;;;;;5015981;28;20452;-43
2021/04/29 09:21:05;;;;;;;13.73;11.55;;;10.10;99.90;;;;;;5015942;28;20022;-44
2021/04/29 09:23:36;;;;;;;16.35;11.90;;;10.10;99.90;;;;;;5018994;28;20037;-49
2021/04/29 09:26:23;;;;;;;17.25;13.10;;;10.10;99.90;;;;;;5015492;28;20062;-46
2021/04/29 09:28:53;;;;;;;19.88;14.25;;;10.10;99.90;;;;;;5015172;28;20257;-44
2021/04/29 09:31:27;;;;;;;17.75;12.40;;;10.20;99.90;;;;;;5014910;28;20045;-46
2021/04/29 09:33:54;;;;;;;19.63;12.98;;;10.50;99.90;;;;;;5015342;28;20509;-44
2021/04/29 09:36:27;;;;;;;34.67;23.85;;;10.80;99.90;;;;;;5015895;28;20064;-47
2021/04/29 09:38:59;;;;;;;158.15;98.22;;;11.00;99.90;;;;;;5015151;28;20028;-53
2021/04/29 09:41:51;;;;;;;92.40;62.47;;;11.10;99.90;;;;;;5015382;28;20159;-43
2021/04/29 09:44:22;;;;;;;59.83;39.85;;;11.30;99.90;;;;;;5014144;28;20044;-47
2021/04/29 09:46:55;;;;;;;35.20;24.17;;;11.60;99.90;;;;;;5014472;28;20033;-44
2021/04/29 09:49:29;;;;;;;21.33;18.00;;;11.80;99.90;;;;;;5015372;28;20027;-42
2021/04/29 09:51:58;;;;;;;17.80;13.05;;;12.00;99.90;;;;;;5029798;28;20076;-43
2021/04/29 09:54:28;;;;;;;17.77;14.10;;;12.60;99.90;;;;;;5034933;28;20014;-45
2021/04/29 09:56:58;;;;;;;18.42;13.30;;;13.10;99.90;;;;;;5034845;28;20346;-43
2021/04/29 09:59:25;;;;;;;14.27;11.38;;;13.50;99.90;;;;;;5034795;28;20053;-41
2021/04/29 10:01:53;;;;;;;20.33;16.00;;;13.90;99.90;;;;;;5033791;28;20036;-43
2021/04/29 10:04:18;;;;;;;16.27;11.80;;;14.20;99.90;;;;;;5048303;28;20100;-46
2021/04/29 10:06:47;;;;;;;16.50;13.55;;;14.40;99.90;;;;;;5054886;28;20108;-43
2021/04/29 10:09:14;;;;;;;17.33;14.00;;;14.70;99.90;;;;;;5052643;28;20480;-43
2021/04/29 10:11:43;;;;;;;15.68;13.00;;;14.80;99.90;;;;;;5047055;28;20078;-46
2021/04/29 10:14:11;;;;;;;23.70;17.70;;;15.10;99.90;;;;;;5042425;28;20078;-42
2021/04/29 10:16:37;;;;;;;20.30;14.48;;;15.20;99.90;;;;;;5048092;28;20481;-45
2021/04/29 10:19:03;;;;;;;17.42;14.68;;;15.10;99.90;;;;;;5035016;28;20045;-46
2021/04/29 10:21:28;;;;;;;15.93;13.25;;;15.10;99.90;;;;;;5043446;28;20385;-43
2021/04/29 10:23:54;;;;;;;20.67;14.38;;;15.10;99.90;;;;;;5035364;28;20029;-44
2021/04/29 10:26:31;;;;;;;15.13;13.00;;;15.10;99.90;;;;;;5028719;28;20042;-45
2021/04/29 10:29:03;;;;;;;16.45;13.40;;;14.70;99.90;;;;;;5015657;28;20380;-43
2021/04/29 10:31:31;;;;;;;14.57;10.93;;;14.60;99.90;;;;;;5017012;28;20137;-45
2021/04/29 10:33:59;;;;;;;16.13;13.70;;;14.50;99.90;;;;;;5014248;28;20026;-45
2021/04/29 10:36:35;;;;;;;13.75;11.25;;;14.60;99.90;;;;;;5014323;28;20022;-43
2021/04/29 10:39:21;;;;;;;20.10;13.80;;;15.00;99.90;;;;;;5018396;28;20033;-44
2021/04/29 10:42:04;;;;;;;19.90;14.85;;;15.60;99.90;;;;;;5023560;28;20022;-46
2021/04/29 10:44:42;;;;;;;17.88;14.90;;;15.70;99.90;;;;;;5029062;28;20113;-45
2021/04/29 10:47:07;;;;;;;18.60;13.40;;;15.80;99.90;;;;;;5012807;28;20090;-42
2021/04/29 10:49:37;;;;;;;16.20;13.25;;;15.80;99.90;;;;;;5019667;28;20436;-44
2021/04/29 10:52:03;;;;;;;12.40;8.65;;;15.90;99.90;;;;;;5032397;28;20040;-42
2021/04/29 10:54:30;;;;;;;20.63;14.82;;;15.80;99.90;;;;;;5042145;28;20026;-43
2021/04/29 10:57:11;;;;;;;16.02;14.20;;;15.80;99.90;;;;;;5033656;28;20056;-43
2021/04/29 10:59:55;;;;;;;15.75;13.23;;;15.70;99.90;;;;;;5045407;28;20056;-44
2021/04/29 11:02:36;;;;;;;10.77;9.02;;;15.50;99.90;;;;;;5031952;28;20131;-47
2021/04/29 11:05:08;;;;;;;10.82;8.20;;;15.30;99.90;;;;;;5023798;28;20029;-44
2021/04/29 11:07:45;;;;;;;9.23;7.60;;;15.10;99.90;;;;;;5022586;28;20022;-42
2021/04/29 11:10:13;;;;;;;13.18;10.43;;;15.00;99.90;;;;;;5032355;28;20219;-43
2021/04/29 11:12:51;;;;;;;12.25;9.05;;;14.80;99.90;;;;;;5033582;28;20165;-42
2021/04/29 11:15:22;;;;;;;12.52;7.97;;;14.60;99.90;;;;;;5049644;28;20145;-47
2021/04/29 11:17:59;;;;;;;10.90;9.07;;;14.70;99.90;;;;;;5033992;28;20061;-42
2021/04/29 11:20:27;;;;;;;11.32;9.93;;;15.00;99.90;;;;;;5033123;28;20029;-42
2021/04/29 11:22:56;;;;;;;13.10;11.50;;;15.40;99.90;;;;;;5017065;28;20030;-44
2021/04/29 11:25:22;;;;;;;17.17;13.52;;;15.80;99.90;;;;;;5013279;28;20025;-43
2021/04/29 11:27:54;;;;;;;12.73;10.98;;;16.10;99.90;;;;;;5013293;28;20407;-42
2021/04/29 11:30:21;;;;;;;14.45;11.15;;;16.20;99.90;;;;;;5012400;28;20014;-42
2021/04/29 11:33:16;;;;;;;11.13;9.25;;;16.30;99.90;;;;;;5013462;28;20018;-41
2021/04/29 11:35:42;;;;;;;13.52;10.77;;;16.10;99.90;;;;;;5008755;28;20034;-42
2021/04/29 11:38:10;;;;;;;10.75;8.77;;;16.00;99.90;;;;;;5013340;28;20041;-42
2021/04/29 11:40:36;;;;;;;8.90;7.45;;;15.90;99.90;;;;;;5013101;28;20441;-41
2021/04/29 11:43:04;;;;;;;13.23;9.23;;;15.80;99.90;;;;;;5011839;28;20099;-41
2021/04/29 11:45:35;;;;;;;10.27;9.18;;;15.80;99.90;;;;;;5012362;28;20168;-43
2021/04/29 11:48:05;;;;;;;12.48;10.07;;;15.70;99.90;;;;;;5013364;28;20059;-46
2021/04/29 11:50:51;;;;;;;11.32;9.65;;;15.60;99.90;;;;;;5014201;28;20489;-42
2021/04/29 11:53:18;;;;;;;11.40;9.45;;;15.50;99.90;;;;;;5033047;28;20037;-44
2021/04/29 11:55:50;;;;;;;11.02;9.50;;;15.60;99.90;;;;;;5032796;28;20026;-43
2021/04/29 11:58:18;;;;;;;10.88;9.73;;;16.00;99.90;;;;;;5032809;28;20069;-45
2021/04/29 12:00:47;;;;;;;13.15;11.10;;;16.40;99.90;;;;;;5031581;28;20155;-45
2021/04/29 12:03:13;;;;;;;21.70;18.88;;;16.80;99.20;;;;;;5032731;28;20397;-44
2021/04/29 12:05:51;;;;;;;13.18;10.63;;;16.90;97.30;;;;;;5032887;28;20022;-44
2021/04/29 12:08:18;;;;;;;14.02;11.07;;;17.10;96.80;;;;;;5032791;28;20484;-42
2021/04/29 12:10:58;;;;;;;12.70;11.35;;;17.10;96.50;;;;;;5031814;28;20029;-43
2021/04/29 12:13:34;;;;;;;15.32;13.65;;;17.40;95.60;;;;;;5034276;28;20091;-42
2021/04/29 12:16:10;;;;;;;19.13;16.33;;;17.80;93.10;;;;;;5008022;28;20539;-44
2021/04/29 12:18:46;;;;;;;15.30;13.15;;;17.90;92.10;;;;;;5015046;28;20048;-43
2021/04/29 12:21:12;;;;;;;16.08;13.80;;;18.00;89.50;;;;;;5012300;28;20030;-48
2021/04/29 12:23:37;;;;;;;19.30;15.18;;;17.90;88.40;;;;;;5019189;28;20044;-41
2021/04/29 12:26:08;;;;;;;16.70;13.18;;;17.70;89.90;;;;;;5031843;28;20036;-43
2021/04/29 12:28:42;;;;;;;12.70;11.38;;;17.40;88.90;;;;;;5032263;28;20029;-43
2021/04/29 12:31:18;;;;;;;12.85;11.52;;;17.20;86.80;;;;;;5030803;28;20041;-42
2021/04/29 12:36:29;;;;;;;15.10;10.57;;;17.20;84.80;;;;;;5161686;23;20531;-42
2021/04/29 12:38:55;;;;;;;12.20;10.93;;;17.60;84.60;;;;;;5052011;28;20021;-42
2021/04/29 12:41:26;;;;;;;14.98;9.77;;;17.90;82.70;;;;;;5254203;23;20088;-45